Time;durP1;ratioP1;P1;durP2;ratioP2;P2;SDS_P1;SDS_P2;PMS_P1;PMS_P2;Temp;Humidity;BMP_temperature;BMP_pressure;BME280_temperature;BME280_humidity;BME280_pressure;Samples;Min_cycle;Max_cycle;Signal;HPM_P1;HPM_P2
2023/08/21 00:00:14;;;;;;;25.25;21.67;;;16.90;87.90;;;;;;5094368;28;20194;-90
2023/08/21 00:02:40;;;;;;;25.02;20.25;;;17.00;88.60;;;;;;5094716;28;20170;-90
2023/08/21 00:05:06;;;;;;;24.35;21.85;;;16.90;88.90;;;;;;5093368;28;20201;-90
2023/08/21 00:07:32;;;;;;;23.13;20.73;;;16.80;89.10;;;;;;5092979;28;20578;-90
2023/08/21 00:09:57;;;;;;;22.38;20.20;;;16.90;89.10;;;;;;5094465;28;20185;-90
2023/08/21 00:12:23;;;;;;;22.70;20.38;;;16.90;88.90;;;;;;5092869;28;20174;-90
2023/08/21 00:14:48;;;;;;;22.42;20.10;;;16.90;88.60;;;;;;5092897;28;20230;-90
2023/08/21 00:17:14;;;;;;;22.65;20.42;;;17.00;88.40;;;;;;5092881;28;20181;-90
2023/08/21 00:19:39;;;;;;;22.50;20.40;;;16.90;88.20;;;;;;5092907;28;20206;-90
2023/08/21 00:22:05;;;;;;;25.33;22.77;;;16.90;87.90;;;;;;5095197;28;20230;-90
2023/08/21 00:24:30;;;;;;;26.45;23.35;;;16.90;88.20;;;;;;5094749;28;20593;-91
2023/08/21 00:26:56;;;;;;;24.45;21.27;;;16.70;88.60;;;;;;5094808;28;20167;-90
2023/08/21 00:29:21;;;;;;;22.15;20.15;;;16.80;88.80;;;;;;5094027;28;20167;-91
2023/08/21 00:31:47;;;;;;;24.40;21.98;;;16.70;89.10;;;;;;5095011;28;20171;-92
2023/08/21 00:34:12;;;;;;;24.33;22.17;;;16.60;89.40;;;;;;5092568;28;20174;-91
2023/08/21 00:36:38;;;;;;;25.30;22.90;;;16.60;89.80;;;;;;5094050;28;20170;-91
2023/08/21 00:39:03;;;;;;;67.53;21.88;;;16.60;90.00;;;;;;5094165;28;20181;-90
2023/08/21 00:41:29;;;;;;;32.17;20.23;;;16.50;90.20;;;;;;5092598;28;20213;-90
2023/08/21 00:43:54;;;;;;;49.30;20.92;;;16.50;90.30;;;;;;5092667;28;20179;-90
2023/08/21 00:46:20;;;;;;;95.18;19.38;;;16.50;90.20;;;;;;5092713;28;20191;-90
2023/08/21 00:48:46;;;;;;;96.13;18.35;;;16.40;90.20;;;;;;5092872;28;20178;-90
2023/08/21 00:51:15;;;;;;;105.38;20.08;;;16.30;90.20;;;;;;5093693;28;20224;-90
2023/08/21 00:53:40;;;;;;;41.20;17.77;;;16.40;90.20;;;;;;5092444;28;20181;-90
2023/08/21 00:56:06;;;;;;;26.33;17.58;;;16.30;90.10;;;;;;5093554;28;20210;-90
2023/08/21 00:58:32;;;;;;;18.70;17.45;;;16.30;90.20;;;;;;5092684;28;20174;-90
2023/08/21 01:00:58;;;;;;;19.13;17.73;;;16.30;90.20;;;;;;5092343;28;20198;-90
2023/08/21 01:03:24;;;;;;;20.17;18.63;;;16.40;90.30;;;;;;5098888;28;20166;-90
2023/08/21 01:05:50;;;;;;;18.90;17.50;;;16.40;90.10;;;;;;5099135;28;20196;-90
2023/08/21 01:08:26;;;;;;;19.30;17.90;;;16.50;89.90;;;;;;5099069;28;20257;-90
2023/08/21 01:11:29;;;;;;;18.58;17.17;;;16.50;89.60;;;;;;5099237;28;20615;-90
2023/08/21 01:14:19;;;;;;;19.40;18.10;;;16.40;89.30;;;;;;5100501;28;20555;-90
2023/08/21 01:16:47;;;;;;;20.05;18.42;;;16.40;89.10;;;;;;5100574;28;20166;-90
2023/08/21 01:19:26;;;;;;;20.73;19.00;;;16.40;88.90;;;;;;5099039;28;20182;-90
2023/08/21 01:21:51;;;;;;;22.10;19.90;;;16.30;88.70;;;;;;5100039;28;20532;-90
2023/08/21 01:24:19;;;;;;;22.42;20.42;;;16.30;88.90;;;;;;5098823;28;20167;-90
2023/08/21 01:26:45;;;;;;;29.38;19.88;;;16.30;89.20;;;;;;5098821;28;20174;-90
2023/08/21 01:29:10;;;;;;;28.77;19.98;;;16.20;89.60;;;;;;5098866;28;20250;-90
2023/08/21 01:31:39;;;;;;;46.72;20.25;;;16.20;89.70;;;;;;5100072;28;20526;-90
2023/08/21 01:34:09;;;;;;;20.45;18.23;;;16.20;89.80;;;;;;5099945;28;20229;-90
2023/08/21 01:36:35;;;;;;;18.98;17.67;;;16.20;90.00;;;;;;5098907;28;20738;-90
2023/08/21 01:39:01;;;;;;;18.98;17.40;;;16.20;89.90;;;;;;5098963;28;20210;-90
2023/08/21 01:41:27;;;;;;;18.25;16.73;;;16.20;89.80;;;;;;5099332;28;20635;-89
2023/08/21 01:43:52;;;;;;;17.75;16.45;;;16.30;89.70;;;;;;5102175;28;20196;-90
2023/08/21 01:46:18;;;;;;;17.98;16.40;;;16.30;89.60;;;;;;5098555;28;20190;-90
2023/08/21 01:48:43;;;;;;;17.40;16.10;;;16.30;89.60;;;;;;5099770;28;20170;-90
2023/08/21 01:51:09;;;;;;;18.63;17.33;;;16.40;89.50;;;;;;5099804;28;20228;-90
2023/08/21 01:53:34;;;;;;;19.58;17.77;;;16.30;89.80;;;;;;5100221;28;20190;-90
2023/08/21 01:56:00;;;;;;;19.33;17.80;;;16.30;90.00;;;;;;5098896;28;20229;-90
2023/08/21 01:58:25;;;;;;;19.67;18.27;;;16.40;90.00;;;;;;5099749;28;20166;-90
2023/08/21 02:00:51;;;;;;;19.63;17.90;;;16.50;89.90;;;;;;5098572;28;20288;-90
2023/08/21 02:03:16;;;;;;;19.35;17.85;;;16.50;89.90;;;;;;5098804;28;20174;-90
2023/08/21 02:05:42;;;;;;;19.38;17.58;;;16.40;89.90;;;;;;5099990;28;20197;-90
2023/08/21 02:08:12;;;;;;;18.27;16.85;;;16.50;90.20;;;;;;5099699;28;20249;-90
2023/08/21 02:10:37;;;;;;;18.17;16.88;;;16.50;90.30;;;;;;5099634;28;20552;-90
2023/08/21 02:13:03;;;;;;;18.77;17.13;;;16.50;90.40;;;;;;5098411;28;20187;-91
2023/08/21 02:15:29;;;;;;;19.75;18.08;;;16.50;90.50;;;;;;5094594;28;20194;-91
2023/08/21 02:17:54;;;;;;;18.83;17.20;;;16.40;90.50;;;;;;5096513;28;20586;-90
2023/08/21 02:20:20;;;;;;;19.75;17.75;;;16.50;90.50;;;;;;5096371;28;20222;-90
2023/08/21 02:22:45;;;;;;;19.00;17.35;;;16.40;90.40;;;;;;5095338;28;20174;-90
2023/08/21 02:25:11;;;;;;;19.70;17.75;;;16.40;90.40;;;;;;5096203;28;20191;-90
2023/08/21 02:27:36;;;;;;;20.35;18.17;;;16.40;90.60;;;;;;5095159;28;20178;-90
2023/08/21 02:30:03;;;;;;;19.92;17.92;;;16.40;90.80;;;;;;5096453;28;20173;-90
2023/08/21 02:32:28;;;;;;;23.73;17.55;;;16.40;90.80;;;;;;5095424;28;20170;-90
2023/08/21 02:34:54;;;;;;;20.15;18.10;;;16.30;90.70;;;;;;5094826;28;20324;-90
2023/08/21 02:37:19;;;;;;;27.17;19.38;;;16.30;90.70;;;;;;5095996;28;20177;-90
2023/08/21 02:39:45;;;;;;;27.02;19.05;;;16.30;90.90;;;;;;5096003;28;20199;-90
2023/08/21 02:42:10;;;;;;;29.73;19.40;;;16.20;91.00;;;;;;5096146;28;20595;-91
2023/08/21 02:44:36;;;;;;;21.98;19.23;;;16.20;91.30;;;;;;5094897;28;20194;-90
2023/08/21 02:47:02;;;;;;;21.65;19.35;;;16.20;91.50;;;;;;5096155;28;20512;-90
2023/08/21 02:49:27;;;;;;;23.30;19.13;;;16.20;91.70;;;;;;5094771;28;20650;-90
2023/08/21 02:51:53;;;;;;;20.67;18.50;;;16.20;91.90;;;;;;5095799;28;20167;-90
2023/08/21 02:54:18;;;;;;;19.08;17.25;;;16.20;92.10;;;;;;5094451;28;20167;-90
2023/08/21 02:56:44;;;;;;;19.73;17.55;;;16.10;92.10;;;;;;5094663;28;20525;-90
2023/08/21 02:59:09;;;;;;;22.60;18.23;;;16.20;92.20;;;;;;5094580;28;20530;-90
2023/08/21 03:01:35;;;;;;;20.00;17.95;;;16.10;92.20;;;;;;5094424;28;20359;-90
2023/08/21 03:04:00;;;;;;;21.33;18.48;;;16.20;92.30;;;;;;5095697;28;20174;-90
2023/08/21 03:06:26;;;;;;;21.50;18.30;;;16.10;92.40;;;;;;5094289;28;20195;-90
2023/08/21 03:08:51;;;;;;;21.35;17.70;;;16.10;92.40;;;;;;5095453;28;20178;-90
2023/08/21 03:11:17;;;;;;;21.92;18.25;;;16.20;92.40;;;;;;5094195;28;20185;-90
2023/08/21 03:13:42;;;;;;;20.73;18.02;;;16.10;92.40;;;;;;5095258;28;20525;-90
2023/08/21 03:16:08;;;;;;;26.17;18.10;;;16.10;92.40;;;;;;5094174;28;20194;-90
2023/08/21 03:18:55;;;;;;;19.27;17.23;;;16.10;92.40;;;;;;5095334;28;20228;-90
2023/08/21 03:21:22;;;;;;;21.48;18.75;;;16.10;92.40;;;;;;5094130;28;20300;-90
2023/08/21 03:23:50;;;;;;;25.58;19.67;;;16.10;92.50;;;;;;5093963;28;20202;-90
2023/08/21 03:26:15;;;;;;;23.10;19.02;;;16.20;92.50;;;;;;5093903;28;20186;-90
2023/08/21 03:28:41;;;;;;;21.50;18.38;;;16.20;92.60;;;;;;5093938;28;20175;-90
2023/08/21 03:31:06;;;;;;;20.38;18.25;;;16.10;92.50;;;;;;5094256;28;20171;-90
2023/08/21 03:33:32;;;;;;;22.00;18.88;;;16.00;92.50;;;;;;5095082;28;20527;-90
2023/08/21 03:35:57;;;;;;;31.02;19.73;;;16.00;92.50;;;;;;5093544;28;20282;-90
2023/08/21 03:38:23;;;;;;;21.83;19.65;;;16.10;92.40;;;;;;5095002;28;20179;-91
2023/08/21 03:40:48;;;;;;;27.23;19.75;;;16.00;92.40;;;;;;5094907;28;20198;-90
2023/08/21 03:43:14;;;;;;;25.40;20.20;;;16.00;92.60;;;;;;5094902;28;20580;-90
2023/08/21 03:45:39;;;;;;;23.17;20.88;;;16.00;92.60;;;;;;5093665;28;20194;-90
2023/08/21 03:48:05;;;;;;;30.02;21.38;;;16.10;92.80;;;;;;5093577;28;20175;-91
2023/08/21 03:50:30;;;;;;;24.13;21.00;;;16.10;92.80;;;;;;5094203;28;20192;-90
2023/08/21 03:52:56;;;;;;;23.60;21.08;;;16.10;93.00;;;;;;5093373;28;20625;-90
2023/08/21 03:55:21;;;;;;;25.98;20.35;;;16.10;93.00;;;;;;5094893;28;20670;-90
2023/08/21 03:57:47;;;;;;;25.40;20.95;;;16.20;93.10;;;;;;5093368;28;20224;-90
2023/08/21 04:00:13;;;;;;;26.23;20.70;;;16.10;93.20;;;;;;5093748;28;20208;-90
2023/08/21 04:02:38;;;;;;;28.63;20.20;;;16.20;93.30;;;;;;5094555;28;20167;-91
2023/08/21 04:05:05;;;;;;;32.58;21.70;;;16.10;93.30;;;;;;5094463;28;20194;-90
2023/08/21 04:07:30;;;;;;;27.27;19.58;;;16.00;93.40;;;;;;5093368;28;20167;-90
2023/08/21 04:09:56;;;;;;;24.15;21.02;;;16.00;93.40;;;;;;5093198;28;20185;-90
2023/08/21 04:12:21;;;;;;;30.15;20.35;;;16.00;93.50;;;;;;5093296;28;20183;-90
2023/08/21 04:14:46;;;;;;;27.10;20.17;;;16.10;93.50;;;;;;5094142;28;20198;-90
2023/08/21 04:17:12;;;;;;;30.38;19.38;;;16.00;93.60;;;;;;5093063;28;20239;-90
2023/08/21 04:19:40;;;;;;;29.27;19.92;;;16.00;93.60;;;;;;5092921;28;20209;-90
2023/08/21 04:22:06;;;;;;;34.05;20.20;;;16.00;93.70;;;;;;5092867;28;20266;-90
2023/08/21 04:24:32;;;;;;;24.38;18.00;;;16.00;93.70;;;;;;5093059;28;20233;-91
2023/08/21 04:26:58;;;;;;;24.30;19.85;;;16.00;93.70;;;;;;5093710;28;20519;-90
2023/08/21 04:29:23;;;;;;;22.60;19.52;;;16.00;93.70;;;;;;5094309;28;20166;-90
2023/08/21 04:31:49;;;;;;;27.45;19.73;;;16.00;93.70;;;;;;5092752;28;20224;-90
2023/08/21 04:34:14;;;;;;;24.90;18.38;;;16.00;93.80;;;;;;5092868;28;20638;-90
2023/08/21 04:36:40;;;;;;;26.75;18.88;;;16.10;93.70;;;;;;5092412;28;20169;-90
2023/08/21 04:39:05;;;;;;;32.47;20.58;;;16.10;93.70;;;;;;5092971;28;20706;-90
2023/08/21 04:41:31;;;;;;;29.58;21.92;;;16.10;93.70;;;;;;5092667;28;20239;-90
2023/08/21 04:43:56;;;;;;;30.00;21.83;;;16.10;93.60;;;;;;5093536;28;20167;-90
2023/08/21 04:46:22;;;;;;;30.50;22.80;;;16.10;93.60;;;;;;5093852;28;20197;-90
2023/08/21 04:48:47;;;;;;;26.35;23.00;;;16.10;93.60;;;;;;5092441;28;20556;-90
2023/08/21 04:51:14;;;;;;;38.60;22.73;;;16.10;93.70;;;;;;5094178;28;20214;-90
2023/08/21 04:53:39;;;;;;;32.05;22.95;;;16.20;93.50;;;;;;5093846;28;20170;-91
2023/08/21 04:56:05;;;;;;;27.98;24.65;;;16.20;93.60;;;;;;5092417;28;20283;-90
2023/08/21 04:58:30;;;;;;;25.75;22.98;;;16.20;93.60;;;;;;5092351;28;20592;-90
2023/08/21 05:00:56;;;;;;;26.13;22.13;;;16.30;93.50;;;;;;5093747;28;20191;-90
2023/08/21 05:03:21;;;;;;;41.85;24.80;;;16.30;93.40;;;;;;5093795;28;20166;-90
2023/08/21 05:05:54;;;;;;;26.05;23.40;;;16.30;93.20;;;;;;5093718;28;20190;-90
2023/08/21 05:08:21;;;;;;;28.20;23.55;;;16.20;93.20;;;;;;5092336;28;20533;-90
2023/08/21 05:10:47;;;;;;;32.22;25.52;;;16.30;93.20;;;;;;5093399;28;20182;-90
2023/08/21 05:13:14;;;;;;;34.00;26.25;;;16.30;93.20;;;;;;5093414;28;20564;-90
2023/08/21 05:15:40;;;;;;;38.10;28.70;;;16.40;93.20;;;;;;5092156;28;20213;-90
2023/08/21 05:18:05;;;;;;;36.35;25.25;;;16.40;93.30;;;;;;5093672;28;20649;-90
2023/08/21 05:20:31;;;;;;;39.83;25.33;;;16.50;93.50;;;;;;5093239;28;20198;-90
2023/08/21 05:22:56;;;;;;;41.63;25.98;;;16.50;93.60;;;;;;5093559;28;20167;-90
2023/08/21 05:25:22;;;;;;;36.78;24.98;;;16.60;93.80;;;;;;5092218;28;20199;-90
2023/08/21 05:27:48;;;;;;;44.03;26.98;;;16.70;93.90;;;;;;5093380;28;20159;-90
2023/08/21 05:30:13;;;;;;;44.00;26.80;;;16.70;94.10;;;;;;5093482;28;20171;-90
2023/08/21 05:32:39;;;;;;;44.38;27.25;;;16.80;94.20;;;;;;5093513;28;20232;-90
2023/08/21 05:35:05;;;;;;;36.47;24.73;;;16.80;94.20;;;;;;5093389;28;20248;-90
2023/08/21 05:37:30;;;;;;;40.50;24.83;;;16.90;94.30;;;;;;5092349;28;20228;-90
2023/08/21 05:39:56;;;;;;;34.17;23.48;;;16.90;94.40;;;;;;5091870;28;20678;-90
2023/08/21 05:42:21;;;;;;;40.92;24.33;;;16.90;94.40;;;;;;5093310;28;20186;-90
2023/08/21 05:44:47;;;;;;;36.13;23.75;;;17.00;94.50;;;;;;5091881;28;20186;-90
2023/08/21 05:47:12;;;;;;;37.05;22.83;;;17.10;94.50;;;;;;5092008;28;20175;-90
2023/08/21 05:49:38;;;;;;;35.83;23.90;;;17.10;94.50;;;;;;5093555;28;20171;-90
2023/08/21 05:52:03;;;;;;;40.58;24.65;;;17.20;94.60;;;;;;5095808;28;20630;-90
2023/08/21 05:54:30;;;;;;;44.60;23.58;;;17.20;94.50;;;;;;5095418;28;20602;-90
2023/08/21 05:56:56;;;;;;;44.53;24.27;;;17.20;94.50;;;;;;5097088;28;20143;-91
2023/08/21 05:59:32;;;;;;;39.00;23.77;;;17.20;94.50;;;;;;5096873;28;20182;-90
2023/08/21 06:01:58;;;;;;;36.75;24.42;;;17.30;94.50;;;;;;5097013;28;20175;-90
2023/08/21 06:04:24;;;;;;;32.40;23.73;;;17.30;94.50;;;;;;5095563;28;20191;-91
2023/08/21 06:06:50;;;;;;;30.55;23.08;;;17.30;94.50;;;;;;5095595;28;20198;-90
2023/08/21 06:09:17;;;;;;;29.02;22.13;;;17.40;94.40;;;;;;5096721;28;20178;-90
2023/08/21 06:11:43;;;;;;;42.83;24.30;;;17.40;94.30;;;;;;5096794;28;20606;-90
2023/08/21 06:14:08;;;;;;;36.17;22.40;;;17.50;94.40;;;;;;5096673;28;20209;-89
2023/08/21 06:16:34;;;;;;;31.05;22.05;;;17.50;94.30;;;;;;5096736;28;20178;-90
2023/08/21 06:18:59;;;;;;;33.00;20.85;;;17.60;94.30;;;;;;5095517;28;20217;-90
2023/08/21 06:21:24;;;;;;;28.67;21.63;;;17.60;94.10;;;;;;5095409;28;20210;-90
2023/08/21 06:23:50;;;;;;;34.72;21.35;;;17.60;94.10;;;;;;5097259;28;20171;-90
2023/08/21 06:26:16;;;;;;;47.13;23.38;;;17.70;94.00;;;;;;5095938;28;20198;-90
2023/08/21 06:28:41;;;;;;;29.92;21.45;;;17.70;94.00;;;;;;5097140;28;20189;-90
2023/08/21 06:31:09;;;;;;;30.48;21.10;;;17.80;93.90;;;;;;5097757;28;20185;-90
2023/08/21 06:33:34;;;;;;;33.95;22.73;;;17.80;93.80;;;;;;5095598;28;20182;-91
2023/08/21 06:36:01;;;;;;;35.90;21.25;;;17.80;93.60;;;;;;5095230;28;20195;-91
2023/08/21 06:38:27;;;;;;;30.48;21.88;;;17.80;93.60;;;;;;5096413;28;20627;-91
2023/08/21 06:40:52;;;;;;;28.25;19.60;;;17.90;93.60;;;;;;5095006;28;20285;-90
2023/08/21 06:43:18;;;;;;;26.77;20.00;;;17.90;93.50;;;;;;5095868;28;20538;-90
2023/08/21 06:45:44;;;;;;;26.05;19.48;;;17.80;93.40;;;;;;5096114;28;20194;-90
2023/08/21 06:48:09;;;;;;;30.95;21.73;;;17.90;93.30;;;;;;5096071;28;20591;-90
2023/08/21 06:50:37;;;;;;;27.52;20.33;;;18.00;93.20;;;;;;5094900;28;20178;-90
2023/08/21 06:53:03;;;;;;;40.00;21.42;;;18.00;93.10;;;;;;5094816;28;20554;-90
2023/08/21 06:55:28;;;;;;;27.52;19.98;;;18.10;93.00;;;;;;5094402;28;20214;-90
2023/08/21 06:57:54;;;;;;;26.63;20.08;;;18.10;92.90;;;;;;5095825;28;20171;-90
2023/08/21 07:00:19;;;;;;;26.08;18.65;;;18.20;92.90;;;;;;5094303;28;20750;-90
2023/08/21 07:02:45;;;;;;;34.33;19.67;;;18.20;92.70;;;;;;5095689;28;20181;-90
2023/08/21 07:05:11;;;;;;;27.95;18.90;;;18.30;92.80;;;;;;5095883;28;20634;-90
2023/08/21 07:07:36;;;;;;;28.75;19.77;;;18.30;92.50;;;;;;5094670;28;20175;-90
2023/08/21 07:10:03;;;;;;;28.90;19.38;;;18.40;92.50;;;;;;5094283;28;20236;-90
2023/08/21 07:12:28;;;;;;;30.92;19.92;;;18.30;92.20;;;;;;5095157;28;20174;-90
2023/08/21 07:14:54;;;;;;;23.83;19.55;;;18.40;92.00;;;;;;5094595;28;20198;-90
2023/08/21 07:17:20;;;;;;;26.25;19.00;;;18.50;92.00;;;;;;5094372;28;20555;-90
2023/08/21 07:19:45;;;;;;;23.02;17.85;;;18.50;91.90;;;;;;5094087;28;20551;-90
2023/08/21 07:22:11;;;;;;;22.60;16.98;;;18.60;91.70;;;;;;5094103;28;20177;-90
2023/08/21 07:24:36;;;;;;;23.92;18.20;;;18.60;91.40;;;;;;5093915;28;20568;-90
2023/08/21 07:27:02;;;;;;;22.90;18.35;;;18.60;91.20;;;;;;5095285;28;20615;-90
2023/08/21 07:29:29;;;;;;;27.30;18.42;;;18.70;91.40;;;;;;5094946;28;20167;-90
2023/08/21 07:31:55;;;;;;;22.85;18.13;;;18.70;91.20;;;;;;5094340;28;20551;-91
2023/08/21 07:34:20;;;;;;;24.27;18.55;;;18.70;91.00;;;;;;5095121;28;20167;-90
2023/08/21 07:36:46;;;;;;;21.25;17.75;;;18.70;90.80;;;;;;5094898;28;20689;-91
2023/08/21 07:39:11;;;;;;;21.40;18.15;;;18.70;90.80;;;;;;5095251;28;20174;-91
2023/08/21 07:41:37;;;;;;;21.88;18.38;;;18.80;90.40;;;;;;5094741;28;20572;-90
2023/08/21 07:44:05;;;;;;;18.48;16.48;;;18.80;90.40;;;;;;5093912;28;20658;-91
2023/08/21 07:46:30;;;;;;;20.10;16.38;;;18.90;90.50;;;;;;5093546;28;20676;-90
2023/08/21 07:48:56;;;;;;;20.27;18.10;;;18.90;89.30;;;;;;5094663;28;20203;-90
2023/08/21 07:51:21;;;;;;;21.40;16.92;;;18.70;87.80;;;;;;5094585;28;20254;-90
2023/08/21 07:53:47;;;;;;;19.27;17.25;;;18.80;87.90;;;;;;5093378;28;20274;-91
2023/08/21 07:56:12;;;;;;;21.48;18.00;;;19.00;88.30;;;;;;5093798;28;20305;-91
2023/08/21 07:58:38;;;;;;;20.38;17.58;;;19.10;88.40;;;;;;5093414;28;20170;-91
2023/08/21 08:01:04;;;;;;;21.33;18.10;;;19.10;87.60;;;;;;5093205;28;20203;-90
2023/08/21 08:03:30;;;;;;;19.90;17.95;;;19.00;87.80;;;;;;5094288;28;20159;-90
2023/08/21 08:05:56;;;;;;;20.30;18.30;;;18.90;87.60;;;;;;5094257;28;20236;-90
2023/08/21 08:08:22;;;;;;;19.33;17.45;;;19.10;87.70;;;;;;5094233;28;20171;-90
2023/08/21 08:10:47;;;;;;;19.85;17.80;;;19.20;87.70;;;;;;5093327;28;20775;-91
2023/08/21 08:13:13;;;;;;;19.35;17.35;;;19.20;87.40;;;;;;5093536;28;20522;-91
2023/08/21 08:15:39;;;;;;;27.25;18.63;;;19.20;87.30;;;;;;5092793;28;20230;-91
2023/08/21 08:18:07;;;;;;;21.75;18.70;;;19.20;87.00;;;;;;5092979;28;20379;-91
2023/08/21 08:20:32;;;;;;;19.40;17.48;;;19.30;87.20;;;;;;5093164;28;20216;-91
2023/08/21 08:22:58;;;;;;;20.08;18.13;;;19.50;86.80;;;;;;5092889;28;20596;-91
2023/08/21 08:25:23;;;;;;;20.70;18.70;;;19.60;86.50;;;;;;5092736;28;20275;-91
2023/08/21 08:27:49;;;;;;;21.33;19.25;;;19.80;85.40;;;;;;5092708;28;20665;-90
2023/08/21 08:30:15;;;;;;;24.55;19.40;;;19.80;84.30;;;;;;5092979;28;20170;-91
2023/08/21 08:32:44;;;;;;;22.08;18.92;;;19.90;84.90;;;;;;5094015;28;20175;-90
2023/08/21 08:35:13;;;;;;;21.20;18.83;;;20.10;84.80;;;;;;5092799;28;20674;-90
2023/08/21 08:37:40;;;;;;;21.27;19.10;;;20.00;83.40;;;;;;5092773;28;20563;-90
2023/08/21 08:40:06;;;;;;;20.88;18.95;;;20.00;84.00;;;;;;5092613;28;20202;-90
2023/08/21 08:42:34;;;;;;;21.23;18.98;;;20.20;84.20;;;;;;5092588;28;20647;-90
2023/08/21 08:45:03;;;;;;;20.92;18.83;;;20.00;81.00;;;;;;5092520;28;20701;-90
2023/08/21 08:47:31;;;;;;;20.33;18.40;;;20.00;81.70;;;;;;5092286;28;20170;-90
2023/08/21 08:49:58;;;;;;;32.05;29.23;;;20.20;81.80;;;;;;5093478;28;20747;-90
2023/08/21 08:52:26;;;;;;;33.78;31.02;;;20.30;81.70;;;;;;5092455;28;20262;-91
2023/08/21 08:54:55;;;;;;;21.80;19.60;;;20.40;82.10;;;;;;5093381;28;20199;-91
2023/08/21 08:57:24;;;;;;;21.02;19.13;;;20.50;79.60;;;;;;5092604;28;20200;-89
2023/08/21 08:59:49;;;;;;;29.80;27.10;;;20.60;78.70;;;;;;5093852;28;20173;-89
2023/08/21 09:02:16;;;;;;;32.33;29.40;;;20.60;79.50;;;;;;5092178;28;20551;-90
2023/08/21 09:04:41;;;;;;;20.40;18.40;;;20.90;80.00;;;;;;5092283;28;20202;-90
2023/08/21 09:07:11;;;;;;;19.98;17.88;;;21.00;79.40;;;;;;5092213;28;20167;-89
2023/08/21 09:09:41;;;;;;;23.67;21.58;;;21.10;79.70;;;;;;5092303;28;20616;-90
2023/08/21 09:12:14;;;;;;;29.83;27.20;;;21.30;80.10;;;;;;5092879;28;20182;-90
2023/08/21 09:14:40;;;;;;;33.72;31.10;;;21.30;77.70;;;;;;5093192;28;20218;-89
2023/08/21 09:17:06;;;;;;;22.15;20.27;;;21.30;77.30;;;;;;5092103;28;20172;-90
2023/08/21 09:19:32;;;;;;;21.13;19.23;;;21.20;77.10;;;;;;5092163;28;20645;-90
2023/08/21 09:21:58;;;;;;;21.20;19.40;;;21.50;77.60;;;;;;5092226;28;20194;-90
2023/08/21 09:24:23;;;;;;;20.23;18.27;;;21.40;76.30;;;;;;5096027;28;20193;-90
2023/08/21 09:26:50;;;;;;;24.13;21.77;;;21.70;76.50;;;;;;5096161;28;20173;-90
2023/08/21 09:29:16;;;;;;;21.48;19.38;;;21.50;74.50;;;;;;5096427;28;20179;-90
2023/08/21 09:31:45;;;;;;;20.67;18.83;;;21.60;75.90;;;;;;5096197;28;20178;-90
2023/08/21 09:34:10;;;;;;;22.95;20.55;;;21.90;74.90;;;;;;5097419;28;20212;-90
2023/08/21 09:36:39;;;;;;;22.60;20.38;;;22.00;75.30;;;;;;5095968;28;20545;-90
2023/08/21 09:39:06;;;;;;;23.48;21.40;;;22.00;74.00;;;;;;5097190;28;20162;-90
2023/08/21 09:41:31;;;;;;;22.67;20.48;;;22.00;72.60;;;;;;5097578;28;20612;-89
2023/08/21 09:44:01;;;;;;;22.52;20.17;;;22.20;74.20;;;;;;5095835;28;20233;-87
2023/08/21 09:46:27;;;;;;;22.23;20.27;;;22.40;72.30;;;;;;5096981;28;20190;-89
2023/08/21 09:48:54;;;;;;;22.55;20.55;;;22.70;71.70;;;;;;5097025;28;20203;-89
2023/08/21 09:51:19;;;;;;;28.48;26.05;;;22.70;70.90;;;;;;5095463;28;20227;-88
2023/08/21 09:53:50;;;;;;;32.78;30.27;;;23.00;71.10;;;;;;5095577;28;20703;-90
2023/08/21 09:56:18;;;;;;;23.00;20.45;;;23.00;69.70;;;;;;5095495;28;20671;-89
2023/08/21 09:58:43;;;;;;;22.33;20.38;;;22.90;70.40;;;;;;5096898;28;20182;-90
2023/08/21 10:01:14;;;;;;;22.08;20.23;;;23.20;71.20;;;;;;5096140;28;20198;-91
2023/08/21 10:03:47;;;;;;;22.75;20.63;;;23.20;70.00;;;;;;5095563;28;20551;-91
2023/08/21 10:06:15;;;;;;;21.88;20.08;;;23.20;68.00;;;;;;5096566;28;20547;-90
2023/08/21 10:08:44;;;;;;;22.17;20.20;;;23.00;69.20;;;;;;5095965;28;20733;-90
2023/08/21 10:11:10;;;;;;;20.02;18.23;;;22.70;66.80;;;;;;5095800;28;20182;-91
2023/08/21 10:13:38;;;;;;;22.77;20.65;;;23.10;69.10;;;;;;5095485;28;20193;-90
2023/08/21 10:16:05;;;;;;;23.95;21.73;;;23.20;68.30;;;;;;5095531;28;20244;-90
2023/08/21 10:18:35;;;;;;;23.05;20.92;;;23.30;69.80;;;;;;5096818;28;20249;-90
2023/08/21 10:21:20;;;;;;;21.85;19.55;;;23.50;68.00;;;;;;5096356;28;20286;-90
2023/08/21 10:23:50;;;;;;;21.60;20.00;;;24.00;68.20;;;;;;5095474;28;20248;-90
2023/08/21 10:26:20;;;;;;;20.67;18.98;;;23.90;68.00;;;;;;5095530;28;20218;-90
2023/08/21 10:28:52;;;;;;;20.88;18.90;;;23.90;66.90;;;;;;5097813;28;20183;-90
2023/08/21 10:31:30;;;;;;;21.65;19.95;;;23.70;66.20;;;;;;5096039;28;20175;-90
2023/08/21 10:33:56;;;;;;;22.10;20.17;;;24.00;65.60;;;;;;5097019;28;20175;-90
2023/08/21 10:36:37;;;;;;;20.55;18.90;;;24.20;65.10;;;;;;5095448;28;20199;-90
2023/08/21 10:39:04;;;;;;;21.20;19.17;;;24.30;65.70;;;;;;5095608;28;20555;-90
2023/08/21 10:41:30;;;;;;;21.33;19.35;;;24.30;64.50;;;;;;5096791;28;20248;-90
2023/08/21 10:43:55;;;;;;;20.80;19.00;;;24.40;65.50;;;;;;5096995;28;20182;-90
2023/08/21 10:46:21;;;;;;;20.42;18.83;;;24.70;64.00;;;;;;5097830;28;20182;-89
2023/08/21 10:48:46;;;;;;;21.40;19.50;;;25.00;64.10;;;;;;5099751;28;20171;-89
2023/08/21 10:51:13;;;;;;;20.88;19.08;;;24.70;63.00;;;;;;5096226;28;20178;-90
2023/08/21 10:53:41;;;;;;;20.50;18.95;;;24.40;64.50;;;;;;5096552;28;20167;-91
2023/08/21 10:56:07;;;;;;;20.30;18.73;;;24.30;63.80;;;;;;5094998;28;20299;-90
2023/08/21 10:58:42;;;;;;;19.42;17.90;;;24.50;62.50;;;;;;5095872;28;20723;-90
2023/08/21 11:01:07;;;;;;;18.88;17.25;;;24.70;61.80;;;;;;5095790;28;20190;-90
2023/08/21 11:03:33;;;;;;;18.80;17.40;;;24.70;61.00;;;;;;5094641;28;20174;-90
2023/08/21 11:06:07;;;;;;;19.75;17.83;;;25.00;62.50;;;;;;5094634;28;20186;-91
2023/08/21 11:08:36;;;;;;;19.27;17.77;;;25.20;59.60;;;;;;5094450;28;20228;-90
2023/08/21 11:11:03;;;;;;;19.15;17.75;;;25.50;60.20;;;;;;5095772;28;20194;-90
2023/08/21 11:13:29;;;;;;;19.40;17.90;;;25.70;58.80;;;;;;5095398;28;20197;-91
2023/08/21 11:15:59;;;;;;;19.33;17.90;;;25.70;59.00;;;;;;5095790;28;20198;-91
2023/08/21 11:18:37;;;;;;;20.52;18.88;;;25.60;59.00;;;;;;5096266;28;20175;-91
2023/08/21 11:21:11;;;;;;;21.35;19.75;;;25.70;59.20;;;;;;5094773;28;20289;-90
2023/08/21 11:23:39;;;;;;;25.60;23.83;;;25.80;56.70;;;;;;5095412;28;20669;-91
2023/08/21 11:26:05;;;;;;;25.40;23.48;;;26.10;57.10;;;;;;5094525;28;20243;-90
2023/08/21 11:28:32;;;;;;;25.52;23.67;;;26.10;54.20;;;;;;5095648;28;20167;-90
2023/08/21 11:30:59;;;;;;;19.40;18.00;;;26.30;55.10;;;;;;5095802;28;20173;-90
2023/08/21 11:33:26;;;;;;;19.42;18.02;;;26.40;53.80;;;;;;5095032;28;20186;-90
2023/08/21 11:35:53;;;;;;;19.80;18.30;;;26.30;54.00;;;;;;5094121;28;20206;-90
2023/08/21 11:38:23;;;;;;;19.42;17.92;;;26.20;57.40;;;;;;5095136;28;20246;-90
2023/08/21 11:40:57;;;;;;;19.02;17.65;;;25.70;56.20;;;;;;5095204;28;20190;-90
2023/08/21 11:43:35;;;;;;;19.77;18.00;;;26.00;54.50;;;;;;5094415;28;20219;-90
2023/08/21 11:46:02;;;;;;;19.35;17.95;;;25.50;55.40;;;;;;5093677;28;20194;-90
2023/08/21 11:48:28;;;;;;;19.00;17.70;;;25.70;55.60;;;;;;5093172;28;20181;-90
2023/08/21 11:50:54;;;;;;;19.70;18.05;;;26.10;53.50;;;;;;5094619;28;20523;-89
2023/08/21 11:53:36;;;;;;;19.85;18.25;;;25.40;55.80;;;;;;5096553;28;20170;-91
2023/08/21 11:56:03;;;;;;;19.15;17.67;;;26.00;53.10;;;;;;5093802;28;20214;-90
2023/08/21 11:58:29;;;;;;;19.40;17.85;;;26.30;52.40;;;;;;5094634;28;20174;-90
2023/08/21 12:01:06;;;;;;;19.60;18.20;;;26.50;50.30;;;;;;5094586;28;20669;-90
2023/08/21 12:03:39;;;;;;;19.25;17.95;;;26.50;49.60;;;;;;5095267;28;20186;-90
2023/08/21 12:06:09;;;;;;;19.13;17.83;;;26.20;46.50;;;;;;5095387;28;20186;-90
2023/08/21 12:08:35;;;;;;;19.83;18.42;;;25.70;51.10;;;;;;5094137;28;20167;-90
2023/08/21 12:11:00;;;;;;;20.67;18.75;;;25.60;52.40;;;;;;5093285;28;20186;-90
2023/08/21 12:13:26;;;;;;;19.42;18.08;;;25.80;51.90;;;;;;5095047;28;20179;-90
2023/08/21 12:15:51;;;;;;;19.38;18.02;;;26.20;49.80;;;;;;5094539;28;20191;-90
2023/08/21 12:18:17;;;;;;;20.20;18.15;;;26.30;50.10;;;;;;5096615;28;20182;-90
2023/08/21 12:20:42;;;;;;;19.42;17.83;;;26.50;47.90;;;;;;5094763;28;20273;-90
2023/08/21 12:23:08;;;;;;;18.88;17.67;;;26.60;51.60;;;;;;5092766;28;20638;-89